Flight Track Log - Related Links

Times and Time Zones

All times are in EDT time to prevent confusion due to time zone crossing. See the ASH3770 flight status page for this flight to view local times or setup timezone preferences in your user account.

Time Position Orientation Groundspeed Altitude Reporting Facility
EDT Latitude Longitude Course Direction KTS MPH feet Rate Location/Type
Thu 05:33:08 PM 36.8656 -76.2825 250° West 170 196 4,100  Level Washington Center
Thu 05:34:09 PM 36.9108 -76.3608 306° West 206 237 7,400 3,273 Climbing Washington Center
Thu 05:35:00 PM 37.0921 -76.6160 300° West  Level FlightAware Approximate
Thu 05:35:09 PM 36.9583 -76.4419 306° West 242 278 10,700  Level Washington Center
Thu 05:36:00 PM 37.1412 -76.7238 300° West  Level FlightAware Approximate
Thu 05:36:07 PM 37.0161 -76.5439 305° West 307 353 13,900  Level Washington Center
Thu 05:37:00 PM 37.1917 -76.8306 307° West  Level FlightAware Approximate
Thu 05:37:08 PM 37.0736 -76.6489 304° West 344 396 14,000  Level Washington Center
Thu 05:38:09 PM 37.1331 -76.7564 305° West 370 426 14,000  Level Washington Center
Thu 05:39:09 PM 37.1967 -76.8694 305° West 389 448 14,000  Level Washington Center
Thu 05:40:07 PM 37.2558 -76.9853 303° West 396 456 14,000  Level Washington Center
Thu 05:41:08 PM 37.3150 -77.0881 306° West 396 456 14,000  Level Washington Center
Thu 05:42:07 PM 37.3908 -77.1917 313° West 402 463 14,000  Level Washington Center
Thu 05:43:07 PM 37.4711 -77.2822 318° Northwest 397 457 14,000 49 Level Washington Center
Thu 05:44:09 PM 37.5769 -77.3211 344° North 386 444 14,100 49 Climbing Washington Center
Thu 05:45:09 PM 37.6914 -77.3264 358° North 386 444 14,100  Level Washington Center
Thu 05:46:08 PM 37.8061 -77.3292 359° North 396 456 14,100  Level Washington Center
Thu 05:47:08 PM 37.9208 -77.3317 359° North 396 456 14,100 -893 Level Washington Center
Thu 05:48:09 PM 38.0314 -77.3369 358° North 402 463 12,300 -1,916 Descending Washington Center
Thu 05:49:07 PM 38.1394 -77.3447 357° North 402 463 10,300 -1,109 Descending Washington Center
Thu 05:50:08 PM 38.2353 -77.3522 356° North 373 429 10,100 -694 Descending Washington Center
Thu 05:51:08 PM 38.3189 -77.3542 359° North 331 381 8,900 -1,190 Descending Washington Center
Thu 05:52:09 PM 38.4042 -77.3589 358° North 308 354 7,700 -1,261 Descending Washington Center
Thu 05:53:07 PM 38.4856 -77.3608 359° North 301 346 6,400 -1,271 Descending Washington Center
Thu 05:54:07 PM 38.5689 -77.3656 357° North 291 335 5,200 -700 Descending Washington Center
Thu 05:55:07 PM 38.6481 -77.3647 360° North 286 329 5,000 -443 Descending Washington Center
Thu 05:56:09 PM 38.7378 -77.3589 North 286 329 4,300 -504 Descending Washington Center
Thu 05:57:06 PM 38.8150 -77.3581 360° North 286 329 4,000 -151 Descending Washington Center
Thu 05:58:08 PM 38.8942 -77.3547 North 291 335 4,000 -432 Level Washington Center
Thu 05:59:25 PM 39.0000 -77.3500 North 284 327 3,000 -657 Descending Potomac TRACON
Thu 06:00:25 PM 39.0667 -77.3500 360° North 236 272 2,500 -600 Descending Potomac TRACON
Thu 06:01:25 PM 39.1000 -77.4167 303° West 219 252 1,800 -700 Descending Potomac TRACON

Login

Don't have an account? Register now (free) for customized features, flight alerts, and more!